US Open OLR - 50 mile

Station: 50 mile - T Race

Distance: 50 Miles

Release: 19-Nov-2021 10:00

Weather Release:    Arrival: clear

Wind at Release: N 6-8     Wind at Arrival: N 6-8

Temp at Release: 38°    Temp at Arrival: 42°

Lofts: 18

Birds: 62

Clocked: 59

Good Luck to Everyone!
Drops Pos Breeder Pigeon Name Color Sex Ent Arrival Speed To Win Elg Pd
1 Radd - OK 6467-AU21-ARPU 2350/ 41032 Na BB H 1 2021-11-19 12:40:52.00 258.165 00:00:00 Yes
2 R & M Lofts - TX 0317-AU21-WACO DC H 1 2021-11-22 11:11:29.00 19.250 70:30:34 Yes
2 Radd - OK 6463-AU21-ARPU 2855/41208 To BB H 3 2021-11-22 11:11:29.00 19.250 70:30:34 Yes
2 Radd - OK 6457-AU21-ARPU 2087/41232 BA BB H 2 2021-11-22 11:11:30.00 19.250 70:30:34 Yes
5 Mirai Loft 2 - TX 1912-AU21-NSL 324/13482 BB H 1 2021-11-22 11:11:36.00 19.249 70:30:48 Yes
5 CALIFORNIA ACEPIGEON - CA 33480-AU21-ARPU CAL ACE 480 BCWF H 2 2021-11-22 11:11:36.00 19.249 70:30:48 Yes
5 CALIFORNIA ACEPIGEON - CA 33477-AU21-ARPU CAL ACE 477 BB H 1 2021-11-22 11:11:39.00 19.249 70:30:48 Yes
5 Hollywood Lou Loft - FL 0721-AU21-HOLL BB H 1 2021-11-22 11:11:40.00 19.249 70:30:48 Yes
5 Radd - OK 6491-AU21-ARPU 2350/ 41032 Na BB H 4 2021-11-22 11:11:41.00 19.249 70:30:48 Yes
5 Dennis Godair - OK 9712-AU21-JEDD BB H 1 2021-11-22 11:11:41.00 19.249 70:30:48 Yes
5 Teal Racing L.L.C. - OK 21597-AU21-ADA BB H 1 2021-11-22 11:11:43.00 19.249 70:30:48 Yes
12 Dennis Godair - OK 9711-AU21-JEDD BCWF H 3 2021-11-22 11:12:16.00 19.246 70:31:31 Yes
12 Radd - OK 6460-AU21-ARPU 14614/14684 CC RED H 6 2021-11-22 11:12:26.00 19.246 70:31:31 Yes
12 Mammothlofts - TX 0902-AU21-XFIL RC H 2 2021-11-22 11:12:27.00 19.246 70:31:31 Yes
12 Texas Holiday Derby - TX 1057-AU21-NSL 11303 X 1045 BC H 1 2021-11-22 11:12:27.00 19.246 70:31:31 Yes
12 CALIFORNIA ACEPIGEON - CA 33481-AU21-ARPU CAL ACE 481 CHBR H 4 2021-11-22 11:12:28.00 19.246 70:31:31 Yes
12 CALIFORNIA ACEPIGEON - CA 33472-AU21-ARPU CAL ACE 472 BC H 3 2021-11-22 11:12:28.00 19.246 70:31:31 Yes
12 Mammothlofts - TX 0901-AU21-XFIL RC H 1 2021-11-22 11:12:28.00 19.246 70:31:31 Yes
12 Radd - OK 6472-AU21-ARPU 1148/41050 BP BB H 5 2021-11-22 11:12:29.00 19.246 70:31:31 Yes
12 Dennis Godair - OK 9716-AU21-JEDD BC H 2 2021-11-22 11:12:29.00 19.246 70:31:31 Yes
21 Dennis Godair - OK 9710-AU21-JEDD BCWF H 6 2021-11-22 11:12:30.00 19.245 70:31:45 Yes
21 Derrow Loft - WV 4473-AU21-VITA "Derrick" BB H 1 2021-11-22 11:12:30.00 19.245 70:31:45 Yes
21 Radd - OK 6486-AU21-ARPU 2087/41232 BA BB H 8 2021-11-22 11:12:30.00 19.245 70:31:45 Yes
21 Mammothlofts - TX 0001-AU21-WW BBPD H 3 2021-11-22 11:12:32.00 19.245 70:31:45 Yes
21 Teal Racing L.L.C. - OK 21596-AU21-ADA GRIZ H 2 2021-11-22 11:12:34.00 19.245 70:31:45 Yes
21 Radd - OK 6448-AU21-ARPU 2185/2528 Wo RCPD H 7 2021-11-22 11:12:34.00 19.245 70:31:45 Yes
21 Pomona Lofts - MD 105442-AU21-ARPU Palmyra BBPD H 1 2021-11-22 11:12:34.00 19.245 70:31:45 Yes
21 Dennis Godair - OK 9717-AU21-JEDD BC H 8 2021-11-22 11:12:35.00 19.245 70:31:45 Yes
21 Mirai Loft 2 - TX 1909-AU21-NSL 246/93 BC H 3 2021-11-22 11:12:37.00 19.245 70:31:45 Yes
21 R & M Lofts - TX 0347-AU21-WACO BBWF H 2 2021-11-22 11:12:37.00 19.245 70:31:45 Yes
21 Ozark Loft - MO 88906-AU21-ARPU BC H 1 2021-11-22 11:12:38.00 19.245 70:31:45 Yes
21 Derrow Loft - WV 4481-AU21-VITA "Dewey" BB H 2 2021-11-22 11:12:38.00 19.245 70:31:45 Yes
21 CALIFORNIA ACEPIGEON - CA 33482-AU21-ARPU CAL ACE 482 CHOC H 6 2021-11-22 11:12:38.00 19.245 70:31:45 Yes
21 Farmer Loft - IL 2311-AU21-VITA BB H 1 2021-11-22 11:12:39.00 19.245 70:31:45 Yes
21 CALIFORNIA ACEPIGEON - CA 33468-AU21-ARPU CAL ACE 468 BC H 7 2021-11-22 11:12:40.00 19.245 70:31:45 Yes
21 CALIFORNIA ACEPIGEON - CA 33485-AU21-ARPU CAL ACE 485 CHBR H 5 2021-11-22 11:12:40.00 19.245 70:31:45 Yes
21 Mirai Loft 2 - TX 1908-AU21-NSL 246/93 BB H 2 2021-11-22 11:12:40.00 19.245 70:31:45 Yes
21 Dennis Godair - OK 9714-AU21-JEDD SLAT H 7 2021-11-22 11:12:40.00 19.245 70:31:45 Yes
21 Dennis Godair - OK 9706-AU21-JEDD SLAT H 4 2021-11-22 11:12:41.00 19.245 70:31:45 Yes
21 Mirai Loft 2 - TX 1945-AU21-NSL 246/93 BB H 4 2021-11-22 11:12:41.00 19.245 70:31:45 Yes
21 Hollywood Lou Loft - FL 0775-AU21-HOLL BB H 2 2021-11-22 11:12:41.00 19.245 70:31:45 Yes
21 Bruno - UT 27407-AU21-FOYS BC H 1 2021-11-22 11:12:43.00 19.245 70:31:45 Yes
21 Dennis Godair - OK 9702-AU21-JEDD BC H 5 2021-11-22 11:12:44.00 19.245 70:31:45 Yes
21 Donnie Taylor Loft - OK 72047-AU21-ARPU BC H 1 2021-11-22 11:12:44.00 19.245 70:31:45 Yes
45 Bruno - UT 27406-AU21-FOYS BBSP H 2 2021-11-22 11:12:45.00 19.244 70:31:59 Yes
45 Radd - OK 6476-AU21-ARPU 813/2822 TP BB C 9 2021-11-22 11:12:47.00 19.244 70:31:59 Yes
47 Ozark Loft - MO 88908-AU21-ARPU BCWF H 2 2021-11-22 11:13:03.00 19.243 70:32:13 Yes
47 CALIFORNIA ACEPIGEON - CA 33474-AU21-ARPU CAL ACE 474 BC H 8 2021-11-22 11:13:03.00 19.243 70:32:13 Yes
47 Lucky 17 - OK 19164-AU21-ARPU BB H 1 2021-11-22 11:13:05.00 19.243 70:32:13 Yes
47 Hollywood Lou Loft - FL 0726-AU21-HOLL BC H 3 2021-11-22 11:13:05.00 19.243 70:32:13 Yes
47 Texas Holiday Derby - TX 1001-AU21-NSL 73 X 26296 BB H 2 2021-11-22 11:13:05.00 19.243 70:32:13 Yes
52 R & M Lofts - TX 0348-AU21-WACO BC H 3 2021-11-22 11:40:39.00 19.128 70:59:43 Yes
53 CALIFORNIA ACEPIGEON - CA 33475-AU21-ARPU CAL ACE 475 BC H 9 2021-11-22 11:40:54.00 19.127 70:59:58 Yes
53 Hawkeye Loft 2 - OH 1248-AU21-COV "Tik Toc" BCWF H 1 2021-11-22 11:40:54.00 19.127 70:59:58 Yes
55 CALIFORNIA ACEPIGEON - CA 33484-AU21-ARPU CAL ACE 484 CHBR H 11 2021-11-22 11:41:15.00 19.125 71:00:26 Yes
55 Hollywood Lou Loft - FL 0697-AU21-HOLL BC H 4 2021-11-22 11:41:17.00 19.125 71:00:26 Yes
55 CALIFORNIA ACEPIGEON - CA 33478-AU21-ARPU CAL ACE 478 DC H 10 2021-11-22 11:41:17.00 19.125 71:00:26 Yes
55 Texas Holiday Derby - TX 1072-AU21-NSL 36701 X 479 BB H 3 2021-11-22 11:41:22.00 19.125 71:00:26 Yes
59 Dennis Godair - OK 9720-AU21-JEDD BB H 9 2021-11-22 11:41:29.00 19.124 71:00:41 Yes

There are 59 bird records

Note: These Race Results are unofficial and subject to change until verified by the Race Committee and declared final.

 

windy